createdAt,value
2022-10-18T00:01:09.611Z,2.42
2022-10-18T00:03:38.920Z,2.25
2022-10-18T00:06:09.291Z,2.05
2022-10-18T00:08:39.067Z,2.15
2022-10-18T00:11:07.720Z,2.28
2022-10-18T00:13:36.170Z,2.03
2022-10-18T00:16:10.325Z,2.28
2022-10-18T00:18:38.445Z,2.28
2022-10-18T00:21:11.536Z,1.80
2022-10-18T00:23:39.864Z,2.42
2022-10-18T00:26:12.412Z,1.98
2022-10-18T00:28:41.801Z,1.90
2022-10-18T00:31:16.465Z,2.40
2022-10-18T00:33:46.087Z,1.83
2022-10-18T00:36:14.726Z,1.80
2022-10-18T00:38:44.232Z,2.40
2022-10-18T00:41:16.018Z,2.10
2022-10-18T00:43:51.751Z,2.08
2022-10-18T00:46:20.362Z,2.08
2022-10-18T00:48:49.168Z,2.40
2022-10-18T00:51:20.207Z,1.90
2022-10-18T00:53:49.501Z,2.08
2022-10-18T00:56:17.976Z,2.45
2022-10-18T00:58:49.213Z,1.95
2022-10-18T01:01:18.047Z,2.12
2022-10-18T01:03:46.372Z,2.20
2022-10-18T01:06:14.696Z,1.95
2022-10-18T01:08:45.848Z,1.87
2022-10-18T01:11:38.048Z,2.35
2022-10-18T01:14:29.722Z,2.60
2022-10-18T01:17:11.743Z,1.70
2022-10-18T01:20:17.255Z,2.47
2022-10-18T01:23:03.487Z,2.00
2022-10-18T01:25:55.897Z,1.83
2022-10-18T01:29:06.192Z,2.00
2022-10-18T01:31:45.372Z,2.42
2022-10-18T01:34:18.030Z,1.73
2022-10-18T01:36:52.295Z,2.20
2022-10-18T01:39:26.761Z,1.90
2022-10-18T01:41:58.532Z,2.20
2022-10-18T01:44:29.840Z,2.15
2022-10-18T01:46:59.806Z,2.58
2022-10-18T01:49:27.843Z,2.53
2022-10-18T01:51:56.032Z,2.12
2022-10-18T01:54:31.079Z,1.80
2022-10-18T01:57:04.472Z,2.10
2022-10-18T01:59:56.348Z,1.95
2022-10-18T02:02:24.964Z,2.17
2022-10-18T02:05:25.565Z,1.90
2022-10-18T02:08:24.450Z,1.92
2022-10-18T02:11:13.303Z,1.73
2022-10-18T02:13:53.348Z,2.17
2022-10-18T02:16:25.989Z,2.12
2022-10-18T02:19:38.657Z,2.08
2022-10-18T02:22:09.853Z,1.95
2022-10-18T02:24:42.259Z,1.98
2022-10-18T02:27:10.973Z,1.70
2022-10-18T02:29:40.783Z,1.75
2022-10-18T02:32:48.337Z,2.28
2022-10-18T02:35:27.863Z,2.03
2022-10-18T02:37:58.494Z,1.65
2022-10-18T02:40:27.273Z,2.20
2022-10-18T02:42:57.332Z,2.17
2022-10-18T02:45:26.858Z,2.45
2022-10-18T02:47:55.467Z,2.30
2022-10-18T02:50:23.777Z,1.95
2022-10-18T02:52:51.964Z,2.03
2022-10-18T02:55:20.478Z,2.10
2022-10-18T02:57:48.709Z,2.05
2022-10-18T03:00:17.188Z,2.65
2022-10-18T03:02:45.604Z,2.37
2022-10-18T03:05:13.712Z,1.98
2022-10-18T03:07:42.137Z,2.53
2022-10-18T03:10:10.579Z,2.53
2022-10-18T03:12:38.711Z,1.67
2022-10-18T03:15:07.381Z,2.35
2022-10-18T03:17:35.622Z,2.00
2022-10-18T03:20:04.196Z,1.85
2022-10-18T03:22:32.577Z,1.77
2022-10-18T03:25:00.824Z,2.15
2022-10-18T03:27:29.022Z,2.00
2022-10-18T03:29:59.307Z,1.95
2022-10-18T03:32:27.881Z,1.75
2022-10-18T03:34:56.321Z,1.92
2022-10-18T03:37:24.872Z,2.05
2022-10-18T03:39:59.005Z,3.05
2022-10-18T03:42:27.449Z,1.70
2022-10-18T03:44:56.216Z,2.42
2022-10-18T03:47:24.259Z,1.87
2022-10-18T03:49:56.227Z,2.60
2022-10-18T03:52:25.919Z,1.60
2022-10-18T03:54:54.387Z,1.90
2022-10-18T03:57:22.499Z,2.00
2022-10-18T03:59:51.087Z,2.40
2022-10-18T04:02:19.516Z,2.00
2022-10-18T04:04:47.896Z,1.85
2022-10-18T04:07:16.322Z,1.60
2022-10-18T04:09:45.035Z,2.20
2022-10-18T04:12:13.400Z,2.42
2022-10-18T04:14:41.705Z,2.92
2022-10-18T04:17:10.098Z,1.80
2022-10-18T04:19:41.069Z,1.85
2022-10-18T04:22:10.748Z,2.42
2022-10-18T04:24:39.100Z,2.12
2022-10-18T04:27:07.930Z,1.60
2022-10-18T04:29:37.206Z,2.22
2022-10-18T04:32:05.653Z,1.87
2022-10-18T04:34:33.790Z,2.17
2022-10-18T04:37:02.292Z,1.77
2022-10-18T04:39:31.089Z,2.15
2022-10-18T04:41:59.262Z,2.58
2022-10-18T04:44:27.735Z,3.00
2022-10-18T04:46:56.015Z,2.37
2022-10-18T04:49:24.089Z,2.28
2022-10-18T04:51:52.711Z,2.37
2022-10-18T04:54:22.793Z,2.05
2022-10-18T04:56:53.475Z,2.87
2022-10-18T04:59:21.793Z,2.30
2022-10-18T05:01:49.837Z,1.77
2022-10-18T05:04:18.159Z,2.30
2022-10-18T05:06:46.879Z,2.40
2022-10-18T05:09:15.927Z,2.22
2022-10-18T05:11:44.078Z,2.22
2022-10-18T05:14:12.664Z,2.03
2022-10-18T05:16:40.634Z,2.10
2022-10-18T05:19:08.822Z,2.30
2022-10-18T05:21:37.837Z,2.55
2022-10-18T05:24:06.356Z,2.65
2022-10-18T05:26:34.522Z,2.92
2022-10-18T05:29:03.618Z,3.42
2022-10-18T05:31:31.832Z,2.72
2022-10-18T05:34:01.709Z,2.45
2022-10-18T05:36:30.236Z,2.33
2022-10-18T05:39:01.001Z,2.28
2022-10-18T05:41:32.975Z,2.42
2022-10-18T05:44:04.868Z,2.20
2022-10-18T05:46:33.622Z,2.33
2022-10-18T05:49:02.273Z,3.03
2022-10-18T05:51:30.415Z,2.97
2022-10-18T05:53:59.020Z,2.35
2022-10-18T05:56:27.248Z,2.10
2022-10-18T05:58:55.429Z,2.05
2022-10-18T06:01:23.943Z,2.05
2022-10-18T06:03:52.596Z,2.92
2022-10-18T06:06:21.358Z,2.37
2022-10-18T06:08:50.565Z,2.37
2022-10-18T06:11:20.488Z,2.45
2022-10-18T06:13:50.843Z,3.17
2022-10-18T06:16:22.063Z,3.25
2022-10-18T06:18:52.749Z,2.30
2022-10-18T06:21:22.521Z,2.90
2022-10-18T06:23:58.516Z,3.15
2022-10-18T06:26:28.357Z,2.22
2022-10-18T06:28:56.694Z,2.17
2022-10-18T06:31:24.938Z,2.40
2022-10-18T06:33:53.425Z,3.30
2022-10-18T06:36:22.539Z,2.75
2022-10-18T06:38:51.206Z,1.90
2022-10-18T06:41:20.644Z,2.28
2022-10-18T06:43:54.029Z,2.40
2022-10-18T06:46:22.773Z,2.83
2022-10-18T06:48:51.414Z,2.53
2022-10-18T06:51:20.092Z,2.60
2022-10-18T06:53:59.691Z,2.87
2022-10-18T06:56:37.486Z,3.15
2022-10-18T06:59:06.305Z,2.92
2022-10-18T07:01:34.656Z,3.00
2022-10-18T07:04:03.406Z,2.25
2022-10-18T07:06:31.888Z,2.85
2022-10-18T07:09:02.918Z,3.17
2022-10-18T07:11:31.406Z,2.30
2022-10-18T07:14:03.383Z,2.72
2022-10-18T07:16:33.351Z,2.67
2022-10-18T07:19:01.636Z,2.65
2022-10-18T07:21:30.412Z,3.30
2022-10-18T07:23:59.018Z,2.90
2022-10-18T07:26:29.907Z,2.92
2022-10-18T07:29:07.759Z,3.40
2022-10-18T07:31:38.436Z,2.67
2022-10-18T07:34:08.273Z,3.30
2022-10-18T07:36:36.379Z,2.85
2022-10-18T07:39:05.252Z,2.75
2022-10-18T07:41:34.365Z,2.95
2022-10-18T07:44:03.659Z,2.50
2022-10-18T07:46:31.948Z,3.17
2022-10-18T07:49:00.753Z,2.78
2022-10-18T07:51:30.932Z,2.37
2022-10-18T07:53:59.638Z,3.08
2022-10-18T07:56:28.324Z,2.90
2022-10-18T07:58:56.806Z,3.37
2022-10-18T08:01:25.664Z,3.10
2022-10-18T08:03:54.463Z,3.37
2022-10-18T08:06:23.582Z,3.58
2022-10-18T08:08:52.338Z,3.20
2022-10-18T08:11:23.563Z,3.08
2022-10-18T08:13:53.167Z,3.75
2022-10-18T08:16:29.640Z,3.17
2022-10-18T08:18:58.857Z,3.60
2022-10-18T08:21:27.391Z,3.33
2022-10-18T08:23:55.505Z,3.35
2022-10-18T08:26:24.222Z,3.70
2022-10-18T08:28:58.277Z,2.97
2022-10-18T08:31:32.468Z,3.17
2022-10-18T08:34:00.789Z,3.62
2022-10-18T08:36:29.029Z,3.10
2022-10-18T08:38:57.382Z,2.83
2022-10-18T08:41:37.831Z,3.10
2022-10-18T08:44:25.063Z,3.08
2022-10-18T08:47:00.572Z,3.17
2022-10-18T08:49:47.055Z,2.92
2022-10-18T08:52:43.472Z,3.45
2022-10-18T08:55:14.118Z,2.90
2022-10-18T08:57:42.918Z,2.85
2022-10-18T09:00:17.821Z,3.75
2022-10-18T09:02:55.113Z,3.20
2022-10-18T09:05:46.262Z,3.55
2022-10-18T09:08:20.954Z,3.30
2022-10-18T09:11:08.210Z,3.33
2022-10-18T09:13:50.051Z,3.25
2022-10-18T09:16:25.213Z,2.75
2022-10-18T09:19:02.644Z,3.05
2022-10-18T09:21:37.342Z,3.20
2022-10-18T09:24:12.266Z,2.80
2022-10-18T09:26:45.579Z,3.30
2022-10-18T09:29:29.581Z,3.33
2022-10-18T09:32:04.797Z,3.45
2022-10-18T09:35:25.788Z,3.08
2022-10-18T09:38:01.077Z,3.58
2022-10-18T09:40:33.903Z,3.25
2022-10-18T09:43:13.750Z,3.30
2022-10-18T09:45:45.840Z,3.10
2022-10-18T09:48:18.130Z,3.08
2022-10-18T09:51:04.895Z,3.90
2022-10-18T09:53:43.415Z,3.00
2022-10-18T09:56:45.032Z,3.33
2022-10-18T09:59:26.753Z,3.55
2022-10-18T10:01:58.028Z,2.85
2022-10-18T10:04:26.686Z,3.42
2022-10-18T10:06:57.158Z,3.53
2022-10-18T10:09:31.224Z,3.03
2022-10-18T10:11:59.916Z,3.42
2022-10-18T10:14:30.465Z,2.95
2022-10-18T10:16:59.612Z,3.42
2022-10-18T10:19:35.063Z,3.22
2022-10-18T10:22:07.079Z,3.50
2022-10-18T10:24:44.373Z,3.15
2022-10-18T10:27:43.929Z,3.42
2022-10-18T10:30:28.837Z,2.97
2022-10-18T10:32:57.416Z,2.58
2022-10-18T10:35:56.077Z,3.05
2022-10-18T10:38:26.316Z,2.70
2022-10-18T10:40:55.925Z,2.75
2022-10-18T10:43:44.306Z,2.62
2022-10-18T10:46:15.144Z,2.50
2022-10-18T10:49:14.198Z,2.85
2022-10-18T10:51:53.624Z,2.40
2022-10-18T10:54:36.387Z,3.10
2022-10-18T10:59:58.512Z,2.40
2022-10-18T11:02:32.918Z,2.95
2022-10-18T11:05:27.184Z,2.70
2022-10-18T11:08:02.367Z,3.05
2022-10-18T11:10:34.858Z,2.53
2022-10-18T11:13:07.861Z,2.58
2022-10-18T11:15:41.991Z,2.47
2022-10-18T11:18:14.704Z,2.37
2022-10-18T11:21:02.013Z,2.10
2022-10-18T11:23:41.183Z,2.40
2022-10-18T11:26:12.360Z,2.20
2022-10-18T11:28:43.811Z,2.33
2022-10-18T11:31:30.636Z,2.25
2022-10-18T11:34:17.199Z,2.40
2022-10-18T11:37:28.163Z,1.70
2022-10-18T11:40:04.261Z,1.80
2022-10-18T11:42:52.352Z,2.00
2022-10-18T11:45:35.541Z,2.28
2022-10-18T11:48:22.436Z,1.87
2022-10-18T11:50:59.480Z,1.58
2022-10-18T11:53:58.376Z,1.80
2022-10-18T11:56:42.587Z,1.92
2022-10-18T11:59:43.894Z,2.08
2022-10-18T12:02:42.659Z,1.87
2022-10-18T12:05:28.979Z,1.90
2022-10-18T12:08:14.182Z,2.17
2022-10-18T12:11:04.140Z,1.73
2022-10-18T12:13:37.762Z,2.15
2022-10-18T12:16:08.246Z,2.03
2022-10-18T12:18:40.948Z,1.98
2022-10-18T12:21:13.300Z,1.90
2022-10-18T12:23:51.350Z,1.30
2022-10-18T12:26:20.827Z,1.70
2022-10-18T12:29:01.048Z,1.62
2022-10-18T12:31:39.378Z,1.70
2022-10-18T12:34:28.023Z,1.48
2022-10-18T12:37:17.141Z,1.77
2022-10-18T12:42:50.978Z,1.37
2022-10-18T12:45:35.489Z,1.50
2022-10-18T12:48:08.683Z,1.85
2022-10-18T12:50:39.729Z,2.58
2022-10-18T12:53:12.410Z,1.73
2022-10-18T12:58:15.336Z,1.58
2022-10-18T13:00:43.875Z,1.83
2022-10-18T13:03:18.240Z,1.48
2022-10-18T13:05:54.537Z,1.52
2022-10-18T13:08:38.450Z,1.80
2022-10-18T13:11:09.814Z,1.10
2022-10-18T13:13:51.386Z,1.90
2022-10-18T13:16:22.857Z,1.65
2022-10-18T13:18:57.907Z,1.62
2022-10-18T13:22:13.795Z,1.50
2022-10-18T13:25:01.835Z,1.65
2022-10-18T13:27:57.663Z,1.60
2022-10-18T13:30:58.089Z,1.60
2022-10-18T13:33:31.476Z,1.90
2022-10-18T13:36:22.907Z,1.87
2022-10-18T13:39:03.888Z,2.03
2022-10-18T13:41:47.204Z,1.60
2022-10-18T13:44:40.314Z,1.70
2022-10-18T13:47:11.947Z,2.08
2022-10-18T13:50:06.878Z,1.45
2022-10-18T13:52:50.059Z,1.70
2022-10-18T13:55:37.985Z,1.80
2022-10-18T13:58:24.858Z,1.65
2022-10-18T14:01:14.365Z,1.40
2022-10-18T14:04:19.709Z,1.30
2022-10-18T14:06:48.151Z,1.55
2022-10-18T14:12:38.633Z,1.37
2022-10-18T14:15:21.190Z,2.05
2022-10-18T14:18:16.208Z,1.23
2022-10-18T14:21:12.183Z,1.70
2022-10-18T14:23:47.370Z,1.52
2022-10-18T14:26:19.191Z,1.37
2022-10-18T14:29:03.143Z,1.48
2022-10-18T14:31:32.088Z,2.05
2022-10-18T14:34:01.046Z,1.40
2022-10-18T14:36:49.272Z,1.30
2022-10-18T14:39:29.064Z,1.80
2022-10-18T14:41:58.729Z,1.33
2022-10-18T14:44:29.155Z,1.42
2022-10-18T14:47:02.926Z,1.75
2022-10-18T14:49:31.326Z,1.85
2022-10-18T14:52:00.975Z,1.40
2022-10-18T14:54:36.975Z,1.45
2022-10-18T14:57:06.842Z,1.58
2022-10-18T14:59:47.346Z,1.40
2022-10-18T15:02:27.418Z,1.30
2022-10-18T15:05:21.356Z,1.30
2022-10-18T15:07:52.014Z,1.70
2022-10-18T15:10:30.946Z,2.12
2022-10-18T15:13:11.125Z,2.08
2022-10-18T15:15:40.354Z,2.67
2022-10-18T15:18:20.384Z,2.55
2022-10-18T15:21:25.965Z,2.95
2022-10-18T15:23:57.555Z,1.98
2022-10-18T15:26:29.733Z,2.10
2022-10-18T15:29:01.522Z,2.03
2022-10-18T15:31:36.882Z,2.03
2022-10-18T15:34:09.506Z,2.33
2022-10-18T15:36:38.110Z,2.17
2022-10-18T15:39:19.993Z,1.90
2022-10-18T15:41:51.512Z,1.92
2022-10-18T15:44:27.950Z,1.90
2022-10-18T15:47:12.411Z,2.17
2022-10-18T15:49:45.738Z,1.80
2022-10-18T15:52:38.035Z,2.00
2022-10-18T15:55:33.729Z,1.40
2022-10-18T15:58:11.578Z,1.58
2022-10-18T16:00:40.029Z,1.60
2022-10-18T16:03:09.676Z,1.80
2022-10-18T16:05:41.211Z,1.48
2022-10-18T16:08:25.587Z,1.85
2022-10-18T16:10:53.919Z,1.80
2022-10-18T16:13:22.595Z,1.48
2022-10-18T16:15:51.145Z,1.77
2022-10-18T16:18:20.558Z,1.92
2022-10-18T16:20:49.073Z,1.80
2022-10-18T16:23:21.757Z,2.08
2022-10-18T16:25:50.692Z,3.35
2022-10-18T16:28:25.487Z,3.12
2022-10-18T16:30:59.973Z,2.90
2022-10-18T16:33:28.752Z,4.65
2022-10-18T16:35:58.177Z,4.25
2022-10-18T16:38:37.222Z,3.83
2022-10-18T16:41:07.376Z,8.73
2022-10-18T16:43:35.956Z,10.90
2022-10-18T16:46:05.155Z,4.57
2022-10-18T16:48:34.110Z,4.50
2022-10-18T16:51:02.481Z,4.78
2022-10-18T16:53:30.833Z,4.68
2022-10-18T16:56:00.646Z,3.25
2022-10-18T16:58:31.957Z,2.47
2022-10-18T17:01:02.868Z,2.80
2022-10-18T17:03:33.408Z,2.30
2022-10-18T17:06:01.896Z,1.92
2022-10-18T17:08:30.071Z,2.40
2022-10-18T17:10:59.459Z,2.60
2022-10-18T17:13:28.055Z,2.78
2022-10-18T17:15:56.125Z,2.42
2022-10-18T17:18:30.547Z,3.28
2022-10-18T17:23:30.530Z,2.40
2022-10-18T17:26:08.675Z,2.20
2022-10-18T17:28:50.957Z,2.08
2022-10-18T17:31:20.755Z,1.58
2022-10-18T17:33:58.581Z,2.45
2022-10-18T17:36:27.469Z,2.33
2022-10-18T17:38:56.241Z,2.10
2022-10-18T17:41:24.450Z,3.72
2022-10-18T17:43:52.977Z,2.87
2022-10-18T17:46:21.389Z,2.70
2022-10-18T17:48:49.628Z,2.42
2022-10-18T17:51:20.756Z,3.00
2022-10-18T17:53:48.822Z,3.60
2022-10-18T17:56:17.003Z,2.85
2022-10-18T17:58:46.885Z,2.47
2022-10-18T18:01:21.037Z,3.20
2022-10-18T18:03:50.246Z,4.05
2022-10-18T18:06:21.613Z,2.72
2022-10-18T18:08:50.281Z,2.35
2022-10-18T18:11:18.868Z,2.30
2022-10-18T18:13:47.355Z,2.17
2022-10-18T18:16:25.061Z,2.22
2022-10-18T18:18:55.487Z,2.50
2022-10-18T18:21:24.901Z,2.50
2022-10-18T18:23:53.281Z,2.25
2022-10-18T18:26:22.338Z,2.78
2022-10-18T18:28:51.138Z,3.00
2022-10-18T18:31:25.726Z,2.33
2022-10-18T18:36:28.876Z,1.75
2022-10-18T18:38:58.295Z,1.85
2022-10-18T18:41:28.235Z,1.95
2022-10-18T18:43:59.859Z,1.62
2022-10-18T18:46:29.963Z,1.85
2022-10-18T18:49:01.999Z,1.77
2022-10-18T18:51:32.152Z,1.77
2022-10-18T18:54:00.830Z,2.10
2022-10-18T18:56:29.269Z,2.28
2022-10-18T18:58:59.245Z,2.12
2022-10-18T19:01:31.041Z,2.17
2022-10-18T19:04:00.127Z,2.50
2022-10-18T19:06:37.083Z,2.65
2022-10-18T19:09:22.099Z,2.30
2022-10-18T19:16:57.694Z,9.02
2022-10-18T19:21:57.914Z,10.48
2022-10-18T19:24:28.482Z,8.75
2022-10-18T19:27:00.076Z,8.70
2022-10-18T19:29:36.663Z,5.10
2022-10-18T19:32:10.200Z,3.80
2022-10-18T19:34:38.834Z,3.83
2022-10-18T19:37:09.470Z,2.72
2022-10-18T19:39:38.529Z,2.80
2022-10-18T19:42:14.717Z,2.65
2022-10-18T19:44:45.510Z,2.78
2022-10-18T19:47:15.142Z,2.90
2022-10-18T19:49:44.323Z,3.03
2022-10-18T19:52:12.717Z,2.92
2022-10-18T19:54:41.544Z,2.50
2022-10-18T19:57:09.958Z,2.25
2022-10-18T20:02:15.312Z,3.20
2022-10-18T20:04:43.779Z,3.17
2022-10-18T20:07:11.789Z,2.80
2022-10-18T20:09:42.061Z,4.62
2022-10-18T20:12:10.572Z,4.72
2022-10-18T20:14:38.764Z,4.80
2022-10-18T20:17:06.911Z,4.10
2022-10-18T20:19:35.392Z,3.10
2022-10-18T20:22:03.470Z,3.25
2022-10-18T20:24:31.608Z,3.45
2022-10-18T20:27:00.398Z,3.50
2022-10-18T20:29:30.168Z,4.07
2022-10-18T20:32:00.671Z,3.85
2022-10-18T20:34:29.451Z,2.37
2022-10-18T20:36:57.714Z,2.40
2022-10-18T20:39:26.052Z,3.08
2022-10-18T20:41:54.494Z,3.47
2022-10-18T20:44:22.853Z,3.28
2022-10-18T20:46:51.175Z,3.22
2022-10-18T20:49:19.710Z,2.58
2022-10-18T20:51:47.834Z,3.00
2022-10-18T20:54:16.257Z,2.12
2022-10-18T20:56:44.715Z,2.60
2022-10-18T20:59:13.785Z,2.33
2022-10-18T21:01:42.120Z,1.95
2022-10-18T21:04:10.916Z,2.60
2022-10-18T21:06:41.868Z,3.00
2022-10-18T21:09:15.986Z,2.28
2022-10-18T21:11:46.805Z,2.08
2022-10-18T21:14:17.809Z,2.58
2022-10-18T21:16:46.659Z,2.85
2022-10-18T21:19:21.685Z,2.00
2022-10-18T21:21:52.887Z,2.30
2022-10-18T21:24:22.575Z,2.62
2022-10-18T21:26:51.000Z,2.17
2022-10-18T21:29:22.161Z,2.58
2022-10-18T21:31:55.327Z,2.20
2022-10-18T21:34:23.651Z,1.87
2022-10-18T21:36:52.006Z,2.15
2022-10-18T21:41:56.350Z,1.87
2022-10-18T21:44:24.839Z,2.05
2022-10-18T21:46:53.035Z,1.65
2022-10-18T21:49:24.951Z,2.25
2022-10-18T21:51:53.097Z,2.83
2022-10-18T21:54:21.493Z,2.20
2022-10-18T21:56:51.136Z,2.42
2022-10-18T21:59:19.363Z,2.80
2022-10-18T22:01:47.768Z,2.35
2022-10-18T22:04:22.725Z,1.98
2022-10-18T22:06:51.982Z,1.85
2022-10-18T22:09:21.664Z,2.12
2022-10-18T22:11:52.539Z,2.03
2022-10-18T22:14:21.562Z,2.28
2022-10-18T22:16:49.876Z,2.33
2022-10-18T22:19:18.361Z,2.55
2022-10-18T22:21:46.815Z,2.12
2022-10-18T22:24:14.964Z,2.53
2022-10-18T22:26:45.138Z,2.12
2022-10-18T22:29:19.366Z,2.12
2022-10-18T22:31:50.383Z,1.92
2022-10-18T22:34:21.928Z,2.60
2022-10-18T22:36:50.385Z,1.90
2022-10-18T22:39:19.059Z,2.08
2022-10-18T22:41:47.627Z,2.22
2022-10-18T22:44:15.690Z,1.87
2022-10-18T22:46:44.363Z,1.67
2022-10-18T22:49:12.638Z,1.80
2022-10-18T22:51:40.917Z,1.77
2022-10-18T22:54:09.813Z,2.30
2022-10-18T22:56:38.248Z,1.87
2022-10-18T22:59:06.432Z,1.75
2022-10-18T23:01:35.348Z,2.40
2022-10-18T23:04:03.820Z,2.28
2022-10-18T23:06:35.089Z,3.10
2022-10-18T23:09:07.059Z,2.62
2022-10-18T23:11:35.928Z,3.20
2022-10-18T23:14:06.233Z,2.45
2022-10-18T23:16:34.381Z,2.53
2022-10-18T23:19:03.090Z,2.78
2022-10-18T23:21:33.396Z,3.17
2022-10-18T23:24:01.589Z,2.60
2022-10-18T23:26:29.649Z,2.72
2022-10-18T23:28:58.303Z,2.83
2022-10-18T23:31:29.852Z,3.25
2022-10-18T23:34:01.730Z,3.08
2022-10-18T23:36:30.741Z,2.85
2022-10-18T23:38:59.468Z,2.92
2022-10-18T23:41:27.709Z,2.53
2022-10-18T23:43:56.637Z,3.40
2022-10-18T23:46:25.150Z,3.10
2022-10-18T23:48:53.386Z,2.95
2022-10-18T23:51:21.674Z,3.10
2022-10-18T23:53:49.930Z,2.97
2022-10-18T23:56:18.146Z,2.28
2022-10-18T23:58:46.666Z,2.83
